Impacts METAR Board
IDs:

KHBG - Hattiesburg/Chain Mu, MS, US

Updated at: 1800 UTC 23 Jan 2019
Potential Impact None Slight Moderate High
Time 23/06Z 23/07Z 23/08Z 23/09Z 23/10Z 23/11Z 23/12Z 23/13Z 23/14Z 23/15Z 23/16Z 23/17Z 23/18Z
Temp60 60 62 63 63 63 65 66 67 67 66 66 67
Dewpt58 59 61 62 62 62 63 64 65 65 65 64 65
Altim30.08 30.06 30.03 30.01 29.99 29.98 29.97 29.95 29.92 29.91 29.90 29.86 29.86
VIS8 8 4 10 9 10 10 10 10 5 1.75 1.5 10
CIG7 7 8 25 8 21 14 11 11 11 39 35 10
CoverOVCOVCOVCOVCOVCOVCOVCOVCOVCOVCOVCOVCOVC
FltCatIFRIFRIFRMVFRIFRMVFRMVFRMVFRMVFRMVFRIFRIFRMVFR
WX----RA BR-RA-RA---------RA BRVCTS +RA BR+RA BR-RA
WDir0110140160150160180180160160170220290
WSpd0 5 4 5 6 5 8 9 9 10 10 10 10
WGst-- -- -- -- -- -- -- -- 17 -- -- -- --
Raw hourly METARs
KHBG 230553Z AUTO 00000KT 8SM OVC007 16/14 A3008 RMK AO2 RAB28E38 CIG 005V010 SLP186 P0000 60002 T01560144 10156 20139 401781006 58013
KHBG 230653Z AUTO 11005KT 8SM OVC007 16/15 A3006 RMK AO2 CIG 006V011 SLP177 T01560150
KHBG 230753Z AUTO 14004KT 4SM RA BR OVC008 17/16 A3003 RMK AO2 RAB0655 CIG 006V010 SLP168 P0006 T01670161
KHBG 230900Z AUTO 16005KT 10SM -RA BKN025 BKN029 OVC038 17/17 A3001 RMK AO2 P0000 T01720167
KHBG 230953Z AUTO 15006KT 9SM -RA BKN008 OVC013 17/17 A2999 RMK AO2 SLP153 P0002 T01720167
KHBG 231056Z AUTO 16005KT 10SM FEW006 BKN021 OVC060 17/17 A2998 RMK AO2 RAE56 P0000 T01720167
KHBG 231153Z AUTO 18008KT 10SM SCT010 OVC014 18/17 A2997 RMK AO2 RAE1056 SLP146 P0000 60045 70047 T01830172 10183 20150 58006
KHBG 231253Z AUTO 18009KT 10SM BKN011 OVC110 19/18 A2995 RMK AO2 SLP140 T01890178
KHBG 231353Z AUTO 16009G17KT 10SM OVC011 19/18 A2992 RMK AO2 RAB21E48 SLP131 P0001 T01940183
KHBG 231453Z AUTO 16010KT 5SM -RA BR OVC011 19/18 A2991 RMK AO2 RAB09 SLP126 P0001 60002 T01940183 56020
KHBG 231604Z AUTO 17010KT 1 3/4SM VCTS +RA BR SCT008 OVC039 19/18 A2990 RMK AO2 LTG DSNT SE P0008 T01890183
KHBG 231653Z AUTO 22010KT 1 1/2SM +RA BR BKN035 BKN055 OVC070 19/18 A2986 RMK AO2 LTG DSNT E SLP108 P0062 T01890178
KHBG 231753Z AUTO 29010KT 10SM -RA BKN010 BKN023 OVC085 19/18 A2986 RMK AO2 SLP111 P0044 60118 T01940183 10194 20183 55015



Page loaded:  18:15 UTC  |   10:15 AM Pacific  |   11:15 AM Mountain  |   12:15 PM Central  |   01:15 PM Eastern

 

ADVISORIES

FORECASTS

FORECASTS

OBSERVATIONS

USER TOOLS

ABOUT US